sensor_id;sensor_type;location;lat;lon;timestamp;pressure;altitude;pressure_sealevel;temperature;humidity
9822;BME280;4950;46.042;14.472;2024-03-25T00:01:32;97162.34;;;6.30;76.40
9822;BME280;4950;46.042;14.472;2024-03-25T00:03:59;97163.34;;;6.21;76.17
9822;BME280;4950;46.042;14.472;2024-03-25T00:06:26;97167.03;;;6.35;75.66
9822;BME280;4950;46.042;14.472;2024-03-25T00:08:52;97164.44;;;6.35;76.11
9822;BME280;4950;46.042;14.472;2024-03-25T00:11:18;97163.34;;;6.29;76.35
9822;BME280;4950;46.042;14.472;2024-03-25T00:13:44;97165.13;;;6.12;76.41
9822;BME280;4950;46.042;14.472;2024-03-25T00:16:11;97169.00;;;6.08;76.82
9822;BME280;4950;46.042;14.472;2024-03-25T00:18:37;97165.97;;;5.97;76.92
9822;BME280;4950;46.042;14.472;2024-03-25T00:21:05;97168.38;;;6.06;76.50
9822;BME280;4950;46.042;14.472;2024-03-25T00:23:31;97170.00;;;6.07;76.50
9822;BME280;4950;46.042;14.472;2024-03-25T00:25:57;97172.75;;;5.98;77.01
9822;BME280;4950;46.042;14.472;2024-03-25T00:28:23;97173.66;;;5.88;77.37
9822;BME280;4950;46.042;14.472;2024-03-25T00:30:50;97175.75;;;5.93;77.65
9822;BME280;4950;46.042;14.472;2024-03-25T00:33:15;97175.44;;;5.88;77.82
9822;BME280;4950;46.042;14.472;2024-03-25T00:35:43;97180.09;;;5.92;77.60
9822;BME280;4950;46.042;14.472;2024-03-25T00:38:10;97176.22;;;6.13;76.76
9822;BME280;4950;46.042;14.472;2024-03-25T00:40:36;97170.31;;;6.04;76.61
9822;BME280;4950;46.042;14.472;2024-03-25T00:43:02;97173.81;;;5.87;77.40
9822;BME280;4950;46.042;14.472;2024-03-25T00:45:29;97168.81;;;5.85;77.88
9822;BME280;4950;46.042;14.472;2024-03-25T00:47:56;97166.75;;;5.72;77.13
9822;BME280;4950;46.042;14.472;2024-03-25T00:50:22;97165.78;;;5.65;78.28
9822;BME280;4950;46.042;14.472;2024-03-25T00:52:48;97169.16;;;5.58;78.35
9822;BME280;4950;46.042;14.472;2024-03-25T00:55:16;97161.91;;;5.61;78.24
9822;BME280;4950;46.042;14.472;2024-03-25T00:57:42;97166.91;;;5.63;78.13
9822;BME280;4950;46.042;14.472;2024-03-25T01:00:10;97163.69;;;5.61;78.00
9822;BME280;4950;46.042;14.472;2024-03-25T01:02:36;97169.00;;;5.67;78.15
9822;BME280;4950;46.042;14.472;2024-03-25T01:05:03;97166.13;;;5.70;77.94
9822;BME280;4950;46.042;14.472;2024-03-25T01:07:30;97170.44;;;5.70;77.26
9822;BME280;4950;46.042;14.472;2024-03-25T01:09:57;97171.72;;;5.58;78.24
9822;BME280;4950;46.042;14.472;2024-03-25T01:12:25;97157.56;;;5.53;78.28
9822;BME280;4950;46.042;14.472;2024-03-25T01:14:52;97158.22;;;5.64;77.55
9822;BME280;4950;46.042;14.472;2024-03-25T01:17:18;97149.19;;;5.68;76.72
9822;BME280;4950;46.042;14.472;2024-03-25T01:19:45;97148.41;;;5.67;76.54
9822;BME280;4950;46.042;14.472;2024-03-25T01:22:10;97146.47;;;5.61;77.32
9822;BME280;4950;46.042;14.472;2024-03-25T01:24:37;97146.97;;;5.57;77.32
9822;BME280;4950;46.042;14.472;2024-03-25T01:27:03;97152.72;;;5.42;77.96
9822;BME280;4950;46.042;14.472;2024-03-25T01:29:31;97150.66;;;5.38;78.50
9822;BME280;4950;46.042;14.472;2024-03-25T01:31:58;97154.97;;;5.29;78.61
9822;BME280;4950;46.042;14.472;2024-03-25T01:34:24;97151.28;;;5.40;78.34
9822;BME280;4950;46.042;14.472;2024-03-25T01:36:50;97148.25;;;5.61;77.61
9822;BME280;4950;46.042;14.472;2024-03-25T01:39:17;97153.06;;;5.47;77.58
9822;BME280;4950;46.042;14.472;2024-03-25T01:41:44;97162.72;;;5.37;77.94
9822;BME280;4950;46.042;14.472;2024-03-25T01:44:11;97158.38;;;5.38;77.87
9822;BME280;4950;46.042;14.472;2024-03-25T01:46:38;97162.69;;;5.29;77.63
9822;BME280;4950;46.042;14.472;2024-03-25T01:49:06;97164.78;;;5.25;77.82
9822;BME280;4950;46.042;14.472;2024-03-25T01:51:33;97165.75;;;5.24;78.23
9822;BME280;4950;46.042;14.472;2024-03-25T01:54:01;97165.75;;;5.24;78.45
9822;BME280;4950;46.042;14.472;2024-03-25T01:56:29;97162.38;;;5.24;78.49
9822;BME280;4950;46.042;14.472;2024-03-25T01:58:58;97166.22;;;5.28;78.00
9822;BME280;4950;46.042;14.472;2024-03-25T02:01:24;97167.38;;;5.25;77.69
9822;BME280;4950;46.042;14.472;2024-03-25T02:03:53;97166.81;;;5.13;77.94
9822;BME280;4950;46.042;14.472;2024-03-25T02:06:19;97164.88;;;5.07;78.26
9822;BME280;4950;46.042;14.472;2024-03-25T02:08:48;97166.66;;;5.07;78.07
9822;BME280;4950;46.042;14.472;2024-03-25T02:11:15;97154.94;;;5.12;78.17
9822;BME280;4950;46.042;14.472;2024-03-25T02:13:42;97167.50;;;5.16;77.68
9822;BME280;4950;46.042;14.472;2024-03-25T02:16:08;97162.00;;;5.10;77.95
9822;BME280;4950;46.042;14.472;2024-03-25T02:18:34;97160.25;;;5.11;78.26
9822;BME280;4950;46.042;14.472;2024-03-25T02:21:02;97155.38;;;5.00;78.02
9822;BME280;4950;46.042;14.472;2024-03-25T02:23:28;97157.28;;;4.89;79.42
9822;BME280;4950;46.042;14.472;2024-03-25T02:25:55;97163.22;;;4.90;78.85
9822;BME280;4950;46.042;14.472;2024-03-25T02:28:22;97163.56;;;4.87;78.86
9822;BME280;4950;46.042;14.472;2024-03-25T02:30:48;97160.66;;;4.90;78.63
9822;BME280;4950;46.042;14.472;2024-03-25T02:33:15;97170.28;;;4.80;79.49
9822;BME280;4950;46.042;14.472;2024-03-25T02:35:42;97167.22;;;4.84;79.10
9822;BME280;4950;46.042;14.472;2024-03-25T02:38:10;97168.69;;;4.79;79.14
9822;BME280;4950;46.042;14.472;2024-03-25T02:40:36;97165.66;;;4.91;78.87
9822;BME280;4950;46.042;14.472;2024-03-25T02:43:05;97165.50;;;4.93;78.56
9822;BME280;4950;46.042;14.472;2024-03-25T02:45:32;97167.28;;;4.92;78.58
9822;BME280;4950;46.042;14.472;2024-03-25T02:47:59;97174.25;;;4.74;78.56
9822;BME280;4950;46.042;14.472;2024-03-25T02:50:25;97172.94;;;4.62;78.67
9822;BME280;4950;46.042;14.472;2024-03-25T02:52:52;97180.41;;;4.47;78.75
9822;BME280;4950;46.042;14.472;2024-03-25T02:55:18;97182.69;;;4.50;78.69
9822;BME280;4950;46.042;14.472;2024-03-25T02:57:44;97179.03;;;4.61;78.62
9822;BME280;4950;46.042;14.472;2024-03-25T03:00:13;97187.84;;;4.58;78.40
9822;BME280;4950;46.042;14.472;2024-03-25T03:02:39;97184.38;;;4.67;78.30
9822;BME280;4950;46.042;14.472;2024-03-25T03:05:05;97180.19;;;4.74;78.19
9822;BME280;4950;46.042;14.472;2024-03-25T03:07:32;97179.50;;;4.56;78.20
9822;BME280;4950;46.042;14.472;2024-03-25T03:09:58;97180.50;;;4.63;78.13
9822;BME280;4950;46.042;14.472;2024-03-25T03:12:24;97177.78;;;4.65;77.88
9822;BME280;4950;46.042;14.472;2024-03-25T03:14:50;97187.34;;;4.54;78.20
9822;BME280;4950;46.042;14.472;2024-03-25T03:17:18;97185.88;;;4.44;78.90
9822;BME280;4950;46.042;14.472;2024-03-25T03:19:45;97190.06;;;4.53;78.81
9822;BME280;4950;46.042;14.472;2024-03-25T03:22:11;97186.38;;;4.47;79.05
9822;BME280;4950;46.042;14.472;2024-03-25T03:24:37;97185.53;;;4.47;79.10
9822;BME280;4950;46.042;14.472;2024-03-25T03:27:04;97182.44;;;4.35;79.65
9822;BME280;4950;46.042;14.472;2024-03-25T03:29:30;97179.06;;;4.34;79.88
9822;BME280;4950;46.042;14.472;2024-03-25T03:31:56;97179.25;;;4.41;79.21
9822;BME280;4950;46.042;14.472;2024-03-25T03:34:23;97189.38;;;4.43;78.22
9822;BME280;4950;46.042;14.472;2024-03-25T03:36:50;97191.22;;;4.24;79.64
9822;BME280;4950;46.042;14.472;2024-03-25T03:39:16;97189.94;;;4.28;79.45
9822;BME280;4950;46.042;14.472;2024-03-25T03:41:42;97195.94;;;4.37;78.83
9822;BME280;4950;46.042;14.472;2024-03-25T03:44:08;97187.16;;;4.48;78.38
9822;BME280;4950;46.042;14.472;2024-03-25T03:46:35;97184.94;;;4.53;77.67
9822;BME280;4950;46.042;14.472;2024-03-25T03:49:01;97186.50;;;4.46;77.88
9822;BME280;4950;46.042;14.472;2024-03-25T03:51:29;97193.94;;;4.23;78.89
9822;BME280;4950;46.042;14.472;2024-03-25T03:53:56;97190.38;;;4.24;79.09
9822;BME280;4950;46.042;14.472;2024-03-25T03:56:22;97204.72;;;4.26;78.01
9822;BME280;4950;46.042;14.472;2024-03-25T03:58:48;97193.78;;;4.24;77.85
9822;BME280;4950;46.042;14.472;2024-03-25T04:01:15;97202.94;;;4.27;78.41
9822;BME280;4950;46.042;14.472;2024-03-25T04:03:41;97201.88;;;4.11;78.72
9822;BME280;4950;46.042;14.472;2024-03-25T04:06:09;97198.06;;;3.71;79.63
9822;BME280;4950;46.042;14.472;2024-03-25T04:08:37;97205.72;;;3.53;81.34
9822;BME280;4950;46.042;14.472;2024-03-25T04:11:04;97207.50;;;3.53;81.09
9822;BME280;4950;46.042;14.472;2024-03-25T04:13:31;97202.38;;;3.53;80.50
9822;BME280;4950;46.042;14.472;2024-03-25T04:16:01;97213.75;;;3.50;80.92
9822;BME280;4950;46.042;14.472;2024-03-25T04:18:27;97226.72;;;3.49;81.74
9822;BME280;4950;46.042;14.472;2024-03-25T04:20:54;97226.72;;;3.49;82.55
9822;BME280;4950;46.042;14.472;2024-03-25T04:23:20;97232.09;;;3.55;81.80
9822;BME280;4950;46.042;14.472;2024-03-25T04:25:48;97236.09;;;3.58;81.78
9822;BME280;4950;46.042;14.472;2024-03-25T04:28:14;97237.13;;;3.65;81.28
9822;BME280;4950;46.042;14.472;2024-03-25T04:30:40;97232.81;;;3.66;80.85
9822;BME280;4950;46.042;14.472;2024-03-25T04:33:06;97239.84;;;3.64;81.56
9822;BME280;4950;46.042;14.472;2024-03-25T04:35:33;97241.81;;;3.70;80.76
9822;BME280;4950;46.042;14.472;2024-03-25T04:38:00;97244.66;;;3.67;81.61
9822;BME280;4950;46.042;14.472;2024-03-25T04:40:26;97243.44;;;3.89;80.96
9822;BME280;4950;46.042;14.472;2024-03-25T04:42:53;97237.66;;;3.87;80.47
9822;BME280;4950;46.042;14.472;2024-03-25T04:45:18;97239.91;;;3.90;80.04
9822;BME280;4950;46.042;14.472;2024-03-25T04:47:44;97240.72;;;3.90;79.87
9822;BME280;4950;46.042;14.472;2024-03-25T04:50:10;97239.22;;;4.06;79.48
9822;BME280;4950;46.042;14.472;2024-03-25T04:52:36;97241.44;;;4.01;79.34
9822;BME280;4950;46.042;14.472;2024-03-25T04:55:01;97253.47;;;4.00;79.60
9822;BME280;4950;46.042;14.472;2024-03-25T04:57:27;97247.47;;;3.91;80.40
9822;BME280;4950;46.042;14.472;2024-03-25T04:59:54;97247.41;;;3.83;80.81
9822;BME280;4950;46.042;14.472;2024-03-25T05:02:20;97251.34;;;3.95;81.24
9822;BME280;4950;46.042;14.472;2024-03-25T05:04:46;97249.59;;;3.78;81.15
9822;BME280;4950;46.042;14.472;2024-03-25T05:07:11;97263.41;;;3.77;81.09
9822;BME280;4950;46.042;14.472;2024-03-25T05:09:37;97253.56;;;3.72;81.92
9822;BME280;4950;46.042;14.472;2024-03-25T05:12:03;97263.41;;;3.77;81.34
9822;BME280;4950;46.042;14.472;2024-03-25T05:14:29;97270.28;;;3.76;81.09
9822;BME280;4950;46.042;14.472;2024-03-25T05:16:56;97266.91;;;3.76;81.17
9822;BME280;4950;46.042;14.472;2024-03-25T05:19:24;97269.47;;;3.76;80.54
9822;BME280;4950;46.042;14.472;2024-03-25T05:21:49;97276.38;;;3.93;80.70
9822;BME280;4950;46.042;14.472;2024-03-25T05:24:15;97280.78;;;3.83;80.39
9822;BME280;4950;46.042;14.472;2024-03-25T05:26:41;97280.03;;;3.91;80.44
9822;BME280;4950;46.042;14.472;2024-03-25T05:29:06;97277.03;;;3.78;81.03
9822;BME280;4950;46.042;14.472;2024-03-25T05:31:32;97277.25;;;3.66;81.72
9822;BME280;4950;46.042;14.472;2024-03-25T05:33:59;97280.47;;;3.68;82.22
9822;BME280;4950;46.042;14.472;2024-03-25T05:36:25;97283.28;;;3.75;81.80
9822;BME280;4950;46.042;14.472;2024-03-25T05:38:51;97285.00;;;3.74;81.08
9822;BME280;4950;46.042;14.472;2024-03-25T05:41:17;97306.50;;;3.73;80.46
9822;BME280;4950;46.042;14.472;2024-03-25T05:43:42;97306.72;;;3.80;81.85
9822;BME280;4950;46.042;14.472;2024-03-25T05:46:08;97308.63;;;3.78;81.91
9822;BME280;4950;46.042;14.472;2024-03-25T05:48:34;97310.88;;;3.63;82.24
9822;BME280;4950;46.042;14.472;2024-03-25T05:51:02;97307.31;;;3.74;82.08
9822;BME280;4950;46.042;14.472;2024-03-25T05:53:28;97301.66;;;3.70;82.45
9822;BME280;4950;46.042;14.472;2024-03-25T05:55:54;97310.94;;;3.53;83.50
9822;BME280;4950;46.042;14.472;2024-03-25T05:58:20;97316.25;;;3.70;83.31
9822;BME280;4950;46.042;14.472;2024-03-25T06:00:47;97310.09;;;3.81;82.99
9822;BME280;4950;46.042;14.472;2024-03-25T06:03:13;97302.19;;;3.92;82.92
9822;BME280;4950;46.042;14.472;2024-03-25T06:05:39;97305.06;;;3.89;82.49
9822;BME280;4950;46.042;14.472;2024-03-25T06:08:07;97311.78;;;4.08;82.14
9822;BME280;4950;46.042;14.472;2024-03-25T06:10:37;97308.72;;;4.04;82.29
9822;BME280;4950;46.042;14.472;2024-03-25T06:13:03;97307.69;;;4.15;82.18
9822;BME280;4950;46.042;14.472;2024-03-25T06:15:29;97308.47;;;4.15;81.30
9822;BME280;4950;46.042;14.472;2024-03-25T06:17:55;97317.50;;;4.20;81.69
9822;BME280;4950;46.042;14.472;2024-03-25T06:20:21;97328.97;;;4.07;81.64
9822;BME280;4950;46.042;14.472;2024-03-25T06:22:46;97323.69;;;3.91;83.24
9822;BME280;4950;46.042;14.472;2024-03-25T06:25:14;97326.72;;;4.04;83.33
9822;BME280;4950;46.042;14.472;2024-03-25T06:27:40;97322.00;;;4.00;83.62
9822;BME280;4950;46.042;14.472;2024-03-25T06:30:07;97330.16;;;3.95;83.58
9822;BME280;4950;46.042;14.472;2024-03-25T06:32:51;97330.34;;;4.02;83.89
9822;BME280;4950;46.042;14.472;2024-03-25T06:35:35;97320.66;;;4.13;83.53
9822;BME280;4950;46.042;14.472;2024-03-25T06:38:01;97323.97;;;3.88;83.71
9822;BME280;4950;46.042;14.472;2024-03-25T06:40:28;97323.75;;;3.81;85.15
9822;BME280;4950;46.042;14.472;2024-03-25T06:42:53;97338.03;;;3.66;85.68
9822;BME280;4950;46.042;14.472;2024-03-25T06:45:19;97333.34;;;3.51;85.39
9822;BME280;4950;46.042;14.472;2024-03-25T06:47:45;97324.16;;;3.31;87.05
9822;BME280;4950;46.042;14.472;2024-03-25T06:50:11;97332.53;;;3.33;87.18
9822;BME280;4950;46.042;14.472;2024-03-25T06:52:36;97325.44;;;3.45;87.27
9822;BME280;4950;46.042;14.472;2024-03-25T06:55:02;97327.72;;;3.48;87.73
9822;BME280;4950;46.042;14.472;2024-03-25T06:57:30;97335.75;;;3.63;87.78
9822;BME280;4950;46.042;14.472;2024-03-25T06:59:55;97339.41;;;3.60;87.76
9822;BME280;4950;46.042;14.472;2024-03-25T07:02:21;97334.31;;;3.78;87.51
9822;BME280;4950;46.042;14.472;2024-03-25T07:04:47;97335.63;;;3.82;86.85
9822;BME280;4950;46.042;14.472;2024-03-25T07:07:13;97334.81;;;3.82;86.84
9822;BME280;4950;46.042;14.472;2024-03-25T07:09:39;97332.41;;;3.80;87.44
9822;BME280;4950;46.042;14.472;2024-03-25T07:12:05;97329.97;;;3.79;88.16
9822;BME280;4950;46.042;14.472;2024-03-25T07:14:32;97334.75;;;3.91;87.37
9822;BME280;4950;46.042;14.472;2024-03-25T07:16:58;97344.16;;;4.01;86.99
9822;BME280;4950;46.042;14.472;2024-03-25T07:19:24;97344.16;;;4.01;86.55
9822;BME280;4950;46.042;14.472;2024-03-25T07:21:50;97347.47;;;4.11;86.93
9822;BME280;4950;46.042;14.472;2024-03-25T07:24:16;97346.72;;;4.19;87.17
9822;BME280;4950;46.042;14.472;2024-03-25T07:26:41;97340.88;;;4.26;87.44
9822;BME280;4950;46.042;14.472;2024-03-25T07:29:07;97347.69;;;4.35;86.41
9822;BME280;4950;46.042;14.472;2024-03-25T07:31:34;97353.31;;;4.21;86.15
9822;BME280;4950;46.042;14.472;2024-03-25T07:34:00;97354.78;;;4.24;86.28
9822;BME280;4950;46.042;14.472;2024-03-25T07:36:26;97357.34;;;4.24;86.86
9822;BME280;4950;46.042;14.472;2024-03-25T07:38:51;97362.00;;;4.38;87.14
9822;BME280;4950;46.042;14.472;2024-03-25T07:41:17;97365.66;;;4.53;87.06
9822;BME280;4950;46.042;14.472;2024-03-25T07:43:43;97357.34;;;4.60;86.76
9822;BME280;4950;46.042;14.472;2024-03-25T07:46:09;97354.59;;;4.79;87.08
9822;BME280;4950;46.042;14.472;2024-03-25T07:48:36;97353.38;;;4.91;85.23
9822;BME280;4950;46.042;14.472;2024-03-25T07:51:02;97358.56;;;5.00;84.96
9822;BME280;4950;46.042;14.472;2024-03-25T07:53:27;97359.13;;;5.11;85.43
9822;BME280;4950;46.042;14.472;2024-03-25T07:55:54;97351.00;;;5.24;85.66
9822;BME280;4950;46.042;14.472;2024-03-25T07:58:19;97355.41;;;5.40;84.49
9822;BME280;4950;46.042;14.472;2024-03-25T08:00:45;97348.84;;;5.46;83.12
9822;BME280;4950;46.042;14.472;2024-03-25T08:03:11;97342.63;;;5.57;83.97
9822;BME280;4950;46.042;14.472;2024-03-25T08:05:38;97335.88;;;5.72;83.91
9822;BME280;4950;46.042;14.472;2024-03-25T08:08:05;97333.16;;;5.82;83.93
9822;BME280;4950;46.042;14.472;2024-03-25T08:10:31;97329.03;;;5.97;84.24
9822;BME280;4950;46.042;14.472;2024-03-25T08:12:57;97330.19;;;6.11;83.23
9822;BME280;4950;46.042;14.472;2024-03-25T08:15:22;97332.63;;;6.21;82.33
9822;BME280;4950;46.042;14.472;2024-03-25T08:17:48;97331.03;;;6.36;81.10
9822;BME280;4950;46.042;14.472;2024-03-25T08:20:14;97329.56;;;6.50;80.72
9822;BME280;4950;46.042;14.472;2024-03-25T08:22:41;97324.91;;;6.70;79.51
9822;BME280;4950;46.042;14.472;2024-03-25T08:25:08;97333.22;;;6.88;78.55
9822;BME280;4950;46.042;14.472;2024-03-25T08:27:33;97326.94;;;6.99;78.28
9822;BME280;4950;46.042;14.472;2024-03-25T08:29:59;97330.78;;;7.11;76.73
9822;BME280;4950;46.042;14.472;2024-03-25T08:32:25;97333.91;;;7.38;77.04
9822;BME280;4950;46.042;14.472;2024-03-25T08:34:50;97331.91;;;7.57;76.99
9822;BME280;4950;46.042;14.472;2024-03-25T08:37:16;97330.06;;;7.65;75.91
9822;BME280;4950;46.042;14.472;2024-03-25T08:39:43;97330.94;;;7.81;75.40
9822;BME280;4950;46.042;14.472;2024-03-25T08:42:09;97324.44;;;7.93;74.67
9822;BME280;4950;46.042;14.472;2024-03-25T08:44:35;97325.28;;;7.85;71.28
9822;BME280;4950;46.042;14.472;2024-03-25T08:47:00;97320.41;;;7.90;72.54
9822;BME280;4950;46.042;14.472;2024-03-25T08:49:26;97326.28;;;8.07;72.30
9822;BME280;4950;46.042;14.472;2024-03-25T08:51:52;97315.72;;;8.17;71.55
9822;BME280;4950;46.042;14.472;2024-03-25T08:54:18;97314.31;;;8.29;71.29
9822;BME280;4950;46.042;14.472;2024-03-25T08:56:45;97312.28;;;8.48;70.62
9822;BME280;4950;46.042;14.472;2024-03-25T08:59:10;97316.84;;;8.61;69.44
9822;BME280;4950;46.042;14.472;2024-03-25T09:01:36;97300.97;;;8.79;70.29
9822;BME280;4950;46.042;14.472;2024-03-25T09:04:02;97309.03;;;8.84;67.25
9822;BME280;4950;46.042;14.472;2024-03-25T09:06:29;97298.31;;;9.02;68.09
9822;BME280;4950;46.042;14.472;2024-03-25T09:08:54;97296.53;;;9.17;67.83
9822;BME280;4950;46.042;14.472;2024-03-25T09:11:38;97293.66;;;9.27;65.93
9822;BME280;4950;46.042;14.472;2024-03-25T09:14:06;97297.22;;;9.56;65.95
9822;BME280;4950;46.042;14.472;2024-03-25T09:16:31;97292.19;;;9.69;64.73
9822;BME280;4950;46.042;14.472;2024-03-25T09:18:57;97294.94;;;9.67;63.79
9822;BME280;4950;46.042;14.472;2024-03-25T09:21:23;97283.66;;;9.75;63.26
9822;BME280;4950;46.042;14.472;2024-03-25T09:23:49;97282.38;;;9.86;63.29
9822;BME280;4950;46.042;14.472;2024-03-25T09:26:14;97274.78;;;10.27;63.32
9822;BME280;4950;46.042;14.472;2024-03-25T09:28:40;97267.97;;;10.48;62.90
9822;BME280;4950;46.042;14.472;2024-03-25T09:31:08;97265.59;;;10.81;61.61
9822;BME280;4950;46.042;14.472;2024-03-25T09:33:33;97264.47;;;10.97;59.23
9822;BME280;4950;46.042;14.472;2024-03-25T09:35:59;97266.97;;;11.12;57.86
9822;BME280;4950;46.042;14.472;2024-03-25T09:38:25;97264.38;;;11.19;55.81
9822;BME280;4950;46.042;14.472;2024-03-25T09:40:52;97270.34;;;11.54;57.02
9822;BME280;4950;46.042;14.472;2024-03-25T09:43:23;97260.13;;;11.53;53.97
9822;BME280;4950;46.042;14.472;2024-03-25T09:45:51;97259.16;;;11.67;53.23
9822;BME280;4950;46.042;14.472;2024-03-25T09:48:21;97249.47;;;12.16;52.06
9822;BME280;4950;46.042;14.472;2024-03-25T09:50:47;97236.84;;;12.46;52.75
9822;BME280;4950;46.042;14.472;2024-03-25T09:53:12;97230.22;;;12.57;52.14
9822;BME280;4950;46.042;14.472;2024-03-25T09:55:38;97234.38;;;12.78;52.41
9822;BME280;4950;46.042;14.472;2024-03-25T09:58:05;97230.69;;;13.06;49.51
9822;BME280;4950;46.042;14.472;2024-03-25T10:00:31;97236.84;;;13.38;49.49
9822;BME280;4950;46.042;14.472;2024-03-25T10:02:56;97230.47;;;13.59;47.41
9822;BME280;4950;46.042;14.472;2024-03-25T10:05:24;97233.38;;;13.44;46.30
9822;BME280;4950;46.042;14.472;2024-03-25T10:07:49;97222.38;;;13.42;45.90
9822;BME280;4950;46.042;14.472;2024-03-25T10:10:19;97225.66;;;13.62;45.94
9822;BME280;4950;46.042;14.472;2024-03-25T10:12:45;97229.34;;;13.87;45.83
9822;BME280;4950;46.042;14.472;2024-03-25T10:15:15;97219.59;;;13.69;43.93
9822;BME280;4950;46.042;14.472;2024-03-25T10:17:41;97228.91;;;13.90;45.18
9822;BME280;4950;46.042;14.472;2024-03-25T10:20:07;97223.16;;;14.06;43.12
9822;BME280;4950;46.042;14.472;2024-03-25T10:22:42;97218.44;;;13.96;41.48
9822;BME280;4950;46.042;14.472;2024-03-25T10:25:18;97220.19;;;14.02;42.17
9822;BME280;4950;46.042;14.472;2024-03-25T10:27:52;97215.97;;;14.01;42.59
9822;BME280;4950;46.042;14.472;2024-03-25T10:30:19;97216.28;;;14.37;42.05
9822;BME280;4950;46.042;14.472;2024-03-25T10:32:45;97214.44;;;14.63;41.70
9822;BME280;4950;46.042;14.472;2024-03-25T10:35:11;97208.31;;;14.75;43.00
9822;BME280;4950;46.042;14.472;2024-03-25T10:37:39;97204.75;;;14.70;41.74
9822;BME280;4950;46.042;14.472;2024-03-25T10:40:07;97200.25;;;14.77;42.00
9822;BME280;4950;46.042;14.472;2024-03-25T10:42:38;97187.31;;;14.64;40.02
9822;BME280;4950;46.042;14.472;2024-03-25T10:45:06;97192.19;;;14.78;39.70
9822;BME280;4950;46.042;14.472;2024-03-25T10:47:34;97181.50;;;14.80;39.49
9822;BME280;4950;46.042;14.472;2024-03-25T10:50:06;97180.00;;;15.21;37.89
9822;BME280;4950;46.042;14.472;2024-03-25T10:52:35;97172.56;;;15.67;36.09
9822;BME280;4950;46.042;14.472;2024-03-25T10:55:02;97175.47;;;16.01;35.94
9822;BME280;4950;46.042;14.472;2024-03-25T10:57:31;97168.19;;;16.38;36.69
9822;BME280;4950;46.042;14.472;2024-03-25T10:59:57;97158.97;;;16.59;36.47
9822;BME280;4950;46.042;14.472;2024-03-25T11:02:24;97153.00;;;16.75;35.80
9822;BME280;4950;46.042;14.472;2024-03-25T11:04:50;97156.91;;;16.61;32.68
9822;BME280;4950;46.042;14.472;2024-03-25T11:07:17;97160.00;;;16.58;33.48
9822;BME280;4950;46.042;14.472;2024-03-25T11:09:43;97149.94;;;16.67;33.63
9822;BME280;4950;46.042;14.472;2024-03-25T11:12:10;97154.16;;;16.68;33.53
9822;BME280;4950;46.042;14.472;2024-03-25T11:14:38;97145.53;;;16.44;33.60
9822;BME280;4950;46.042;14.472;2024-03-25T11:17:14;97149.25;;;16.59;33.30
9822;BME280;4950;46.042;14.472;2024-03-25T11:19:40;97140.69;;;16.76;31.14
9822;BME280;4950;46.042;14.472;2024-03-25T11:22:07;97139.56;;;17.12;31.98
9822;BME280;4950;46.042;14.472;2024-03-25T11:24:34;97143.53;;;17.44;30.68
9822;BME280;4950;46.042;14.472;2024-03-25T11:27:00;97142.06;;;17.19;29.35
9822;BME280;4950;46.042;14.472;2024-03-25T11:29:26;97146.47;;;17.02;30.15
9822;BME280;4950;46.042;14.472;2024-03-25T11:31:55;97128.84;;;16.73;29.35
9822;BME280;4950;46.042;14.472;2024-03-25T11:34:23;97138.63;;;16.78;28.66
9822;BME280;4950;46.042;14.472;2024-03-25T11:36:49;97126.59;;;17.34;29.29
9822;BME280;4950;46.042;14.472;2024-03-25T11:39:16;97115.47;;;17.61;28.81
9822;BME280;4950;46.042;14.472;2024-03-25T11:41:42;97121.22;;;17.58;26.84
9822;BME280;4950;46.042;14.472;2024-03-25T11:44:09;97114.78;;;18.17;27.36
9822;BME280;4950;46.042;14.472;2024-03-25T11:46:36;97105.56;;;18.36;27.22
9822;BME280;4950;46.042;14.472;2024-03-25T11:49:04;97103.97;;;18.57;27.40
9822;BME280;4950;46.042;14.472;2024-03-25T11:51:31;97106.44;;;18.86;26.62
9822;BME280;4950;46.042;14.472;2024-03-25T11:53:56;97097.28;;;19.16;26.68
9822;BME280;4950;46.042;14.472;2024-03-25T11:56:22;97088.97;;;19.29;26.41
9822;BME280;4950;46.042;14.472;2024-03-25T11:58:48;97082.97;;;19.66;25.99
9822;BME280;4950;46.042;14.472;2024-03-25T12:01:14;97076.22;;;19.75;24.54
9822;BME280;4950;46.042;14.472;2024-03-25T12:03:40;97082.91;;;19.93;23.69
9822;BME280;4950;46.042;14.472;2024-03-25T12:06:07;97081.28;;;19.54;23.33
9822;BME280;4950;46.042;14.472;2024-03-25T12:08:33;97080.59;;;19.05;23.65
9822;BME280;4950;46.042;14.472;2024-03-25T12:10:59;97071.81;;;19.21;24.96
9822;BME280;4950;46.042;14.472;2024-03-25T12:13:43;97070.38;;;19.36;23.74
9822;BME280;4950;46.042;14.472;2024-03-25T12:16:09;97067.69;;;19.63;23.80
9822;BME280;4950;46.042;14.472;2024-03-25T12:18:35;97060.72;;;19.84;24.56
9822;BME280;4950;46.042;14.472;2024-03-25T12:21:02;97049.44;;;19.51;22.84
9822;BME280;4950;46.042;14.472;2024-03-25T12:23:33;97056.47;;;19.13;23.51
9822;BME280;4950;46.042;14.472;2024-03-25T12:25:59;97045.59;;;19.31;23.87
9822;BME280;4950;46.042;14.472;2024-03-25T12:28:24;97043.88;;;19.52;23.02
9822;BME280;4950;46.042;14.472;2024-03-25T12:30:51;97042.34;;;19.57;23.20
9822;BME280;4950;46.042;14.472;2024-03-25T12:33:17;97043.28;;;19.72;22.85
9822;BME280;4950;46.042;14.472;2024-03-25T12:35:45;97028.44;;;19.61;22.52
9822;BME280;4950;46.042;14.472;2024-03-25T12:38:22;97028.31;;;19.83;22.46
9822;BME280;4950;46.042;14.472;2024-03-25T12:40:49;97023.94;;;19.99;22.92
9822;BME280;4950;46.042;14.472;2024-03-25T12:43:15;97017.38;;;20.02;22.80
9822;BME280;4950;46.042;14.472;2024-03-25T12:45:41;97016.94;;;20.25;23.71
9822;BME280;4950;46.042;14.472;2024-03-25T12:48:07;97013.53;;;20.30;22.44
9822;BME280;4950;46.042;14.472;2024-03-25T12:50:33;97012.19;;;20.22;22.46
9822;BME280;4950;46.042;14.472;2024-03-25T12:52:59;97004.97;;;19.60;23.20
9822;BME280;4950;46.042;14.472;2024-03-25T12:55:24;97004.03;;;19.39;23.66
9822;BME280;4950;46.042;14.472;2024-03-25T12:57:51;97004.63;;;19.46;24.41
9822;BME280;4950;46.042;14.472;2024-03-25T13:00:17;96996.59;;;19.63;23.07
9822;BME280;4950;46.042;14.472;2024-03-25T13:02:43;97011.75;;;19.88;23.27
9822;BME280;4950;46.042;14.472;2024-03-25T13:05:09;96999.88;;;19.85;23.64
9822;BME280;4950;46.042;14.472;2024-03-25T13:07:35;96999.06;;;19.80;23.84
9822;BME280;4950;46.042;14.472;2024-03-25T13:10:01;96998.69;;;20.08;23.63
9822;BME280;4950;46.042;14.472;2024-03-25T13:12:27;96993.50;;;20.34;24.03
9822;BME280;4950;46.042;14.472;2024-03-25T13:14:54;96987.22;;;20.56;22.90
9822;BME280;4950;46.042;14.472;2024-03-25T13:17:19;96993.53;;;20.44;22.27